Tropical Cyclones
[Index]
Main Index Home Page Stock Weather Photos Extreme Storms Discussion Storm News and Storm Chasing Reports Tropical Cyclones / Hurricanes / Typhoons Weather Data and Links Wild Fires / Bushfires Weather Observation Techniques Weather Picture Catalogue Tornado Pictures and Reports Stock Video Footage and DVDs for sale
Season 1981-1982 Tropical Cyclone BERNIE Track Map
Season 1981-1982 Summaries: [BoM-AU] [JTWC-AU] [JTWC-SIO] [JTWC-SPAC] [JTWC-SH]
<<- Previous TC | BoM 1981-1982 Season | Next TC ->>

click for intensity scale information  Lat/long Grid: Show Hide

 Date Labels: Show Hide

Bureau of Meteorology Tropical Cyclone Data

Name: BERNIE
Number: 633 / 198182_14

01 Apr 1982 02:00 UTC to 07 Apr 1982 00:00 UTC

    date/time    lat    long    hPa   cat  kts
1982-04-01 02    5.8   159.5    995    1                
1982-04-01 06    6.2   159.4    995    1                
1982-04-01 12    6.8   159.3    995    1                
1982-04-01 18    7.7   159.2    990    1                
1982-04-02 00    8.5   158.9    990    1                
1982-04-02 06    9.1   158.6    989    1                
1982-04-02 12    9.6   158.4    985    2                
1982-04-02 18   10.0   158.2    985    2                
1982-04-03 00   10.3   158.1    985    2                
1982-04-03 06   10.6   158.0    982    2                
1982-04-03 12   11.0   157.8    980    2                
1982-04-03 18   11.5   157.5    980    2                
1982-04-04 00   12.2   157.3    980    2                
1982-04-04 06   13.3   157.0    978    2                
1982-04-04 12   14.4   156.6    975    2                
1982-04-04 18   15.5   156.5    970    3                
1982-04-05 00   16.7   156.4    965    3                
1982-04-05 06   17.7   156.6    960    3                
1982-04-05 12   18.6   157.2    955    4                
1982-04-05 18   19.5   157.8    950    4                
1982-04-06 00   20.4   158.5    945    4                
1982-04-06 06   21.2   159.1    950    4                
1982-04-06 12   22.0   159.9    955    4                
1982-04-06 18   22.8   160.8    960    3                
1982-04-07 00   23.4   161.9    965    3                
Winds are 10-min average.

Tropical cyclone tracks developed by Michael Bath using data from the Bureau of Meteorology and Google Maps.


[Australian Severe Weather index] [Copyright Notice] [Email Contacts] [Search This Site] [Privacy Policy]
Document: tropical_cyclone_bernie.htm Updated: 30 May 2013